createdAt,value
2022-10-06T00:00:46.027Z,98533.41
2022-10-06T00:04:48.071Z,98550.41
2022-10-06T00:08:50.113Z,98562.13
2022-10-06T00:12:52.662Z,98572.88
2022-10-06T00:16:54.736Z,98579.06
2022-10-06T00:20:58.924Z,98582.72
2022-10-06T00:25:01.273Z,98582.88
2022-10-06T00:29:03.852Z,98601.28
2022-10-06T00:33:05.865Z,98611.84
2022-10-06T00:37:07.869Z,98611.38
2022-10-06T00:41:13.872Z,98600.34
2022-10-06T00:45:17.205Z,98612.28
2022-10-06T00:49:37.994Z,98614.69
2022-10-06T00:53:40.891Z,98623.09
2022-10-06T00:57:43.441Z,98614.69
2022-10-06T01:01:53.843Z,98611.47
2022-10-06T01:05:57.173Z,98627.78
2022-10-06T01:09:59.486Z,98635.38
2022-10-06T01:14:01.534Z,98632.44
2022-10-06T01:18:09.668Z,98650.59
2022-10-06T01:22:15.594Z,98660.91
2022-10-06T01:26:20.481Z,98689.00
2022-10-06T01:30:29.900Z,98708.00
2022-10-06T01:34:32.039Z,98727.22
2022-10-06T01:38:34.307Z,98739.59
2022-10-06T01:42:38.964Z,98734.28
2022-10-06T01:46:41.246Z,98744.28
2022-10-06T01:50:44.293Z,98746.69
2022-10-06T01:54:46.403Z,98751.78
2022-10-06T01:58:48.812Z,98753.31
2022-10-06T02:02:51.027Z,98755.53
2022-10-06T02:06:55.382Z,98757.75
2022-10-06T02:10:57.488Z,98757.91
2022-10-06T02:15:01.757Z,98753.00
2022-10-06T02:19:04.625Z,98762.09
2022-10-06T02:23:06.663Z,98771.25
2022-10-06T02:27:08.729Z,98776.50
2022-10-06T02:31:12.525Z,98789.84
2022-10-06T02:35:15.509Z,98794.31
2022-10-06T02:39:19.096Z,98799.59
2022-10-06T02:43:22.029Z,98798.69
2022-10-06T02:47:24.193Z,98806.88
2022-10-06T02:51:26.426Z,98806.34
2022-10-06T02:55:31.157Z,98823.25
2022-10-06T02:59:35.860Z,98835.56
2022-10-06T03:03:40.821Z,98825.06
2022-10-06T03:07:42.888Z,98835.63
2022-10-06T03:11:45.660Z,98837.34
2022-10-06T03:16:18.057Z,98846.81
2022-10-06T03:20:20.743Z,98850.97
2022-10-06T03:24:22.892Z,98861.47
2022-10-06T03:28:30.456Z,98867.88
2022-10-06T03:32:32.742Z,98861.00
2022-10-06T03:36:36.164Z,98876.69
2022-10-06T03:40:38.320Z,98869.66
2022-10-06T03:44:40.492Z,98878.47
2022-10-06T03:48:43.228Z,98887.25
2022-10-06T03:52:45.328Z,98895.59
2022-10-06T03:56:47.546Z,98888.63
2022-10-06T04:00:49.647Z,98904.47
2022-10-06T04:04:51.832Z,98903.47
2022-10-06T04:08:55.171Z,98911.31
2022-10-06T04:12:57.645Z,98927.19
2022-10-06T04:17:01.474Z,98941.47
2022-10-06T04:21:07.803Z,98934.09
2022-10-06T04:25:10.076Z,98962.78
2022-10-06T04:29:13.017Z,98950.16
2022-10-06T04:33:15.815Z,98963.66
2022-10-06T04:37:18.311Z,98968.47
2022-10-06T04:41:21.013Z,98977.47
2022-10-06T04:45:23.189Z,98979.44
2022-10-06T04:49:25.307Z,98986.41
2022-10-06T04:53:29.889Z,98984.91
2022-10-06T04:57:32.604Z,98994.19
2022-10-06T05:01:36.934Z,99014.84
2022-10-06T05:05:43.294Z,99026.66
2022-10-06T05:09:45.637Z,99022.81
2022-10-06T05:13:49.514Z,99038.09
2022-10-06T05:17:51.706Z,99046.31
2022-10-06T05:21:53.775Z,99043.13
2022-10-06T05:26:00.269Z,99059.16
2022-10-06T05:30:03.214Z,99062.84
2022-10-06T05:34:06.030Z,99075.97
2022-10-06T05:38:11.650Z,99078.69
2022-10-06T05:42:13.983Z,99096.41
2022-10-06T05:46:25.139Z,99094.03
2022-10-06T05:50:29.254Z,99100.38
2022-10-06T05:54:31.793Z,99111.75
2022-10-06T05:58:36.021Z,99108.38
2022-10-06T06:02:38.392Z,99114.81
2022-10-06T06:06:45.673Z,99120.38
2022-10-06T06:10:51.501Z,99129.31
2022-10-06T06:15:12.251Z,99136.25
2022-10-06T06:19:19.138Z,99138.63
2022-10-06T06:23:21.754Z,99151.81
2022-10-06T06:27:24.690Z,99162.22
2022-10-06T06:31:29.783Z,99170.97
2022-10-06T06:35:31.902Z,99175.44
2022-10-06T06:39:34.749Z,99182.41
2022-10-06T06:43:36.838Z,99192.91
2022-10-06T06:47:57.958Z,99203.38
2022-10-06T06:52:00.009Z,99218.28
2022-10-06T06:56:05.068Z,99222.78
2022-10-06T07:00:09.527Z,99230.53
2022-10-06T07:04:15.803Z,99231.28
2022-10-06T07:08:20.551Z,99238.28
2022-10-06T07:12:25.316Z,99234.72
2022-10-06T07:16:51.128Z,99243.44
2022-10-06T07:21:12.731Z,99252.06
2022-10-06T07:25:26.033Z,99263.25
2022-10-06T07:29:40.559Z,99264.75
2022-10-06T07:33:43.170Z,99276.63
2022-10-06T07:37:45.497Z,99272.72
2022-10-06T07:41:47.658Z,99290.06
2022-10-06T07:45:50.041Z,99290.66
2022-10-06T07:50:12.975Z,99294.06
2022-10-06T07:54:15.211Z,99292.38
2022-10-06T07:58:37.348Z,99291.72
2022-10-06T08:02:39.845Z,99295.63
2022-10-06T08:06:42.202Z,99309.63
2022-10-06T08:10:52.802Z,99317.66
2022-10-06T08:14:55.086Z,99322.69
2022-10-06T08:18:59.213Z,99326.88
2022-10-06T08:23:01.307Z,99331.47
2022-10-06T08:27:03.380Z,99339.25
2022-10-06T08:31:12.496Z,99343.44
2022-10-06T08:35:14.629Z,99342.72
2022-10-06T08:39:18.051Z,99353.38
2022-10-06T08:43:23.090Z,99357.44
2022-10-06T08:47:28.986Z,99354.63
2022-10-06T08:51:57.210Z,99364.38
2022-10-06T08:56:18.231Z,99366.53
2022-10-06T09:00:22.201Z,99376.84
2022-10-06T09:04:29.077Z,99382.69
2022-10-06T09:09:03.506Z,99388.47
2022-10-06T09:13:08.839Z,99375.06
2022-10-06T09:17:15.914Z,99399.41
2022-10-06T09:21:30.267Z,99396.44
2022-10-06T09:25:33.494Z,99393.59
2022-10-06T09:29:35.485Z,99395.09
2022-10-06T09:33:39.764Z,99394.00
2022-10-06T09:38:00.127Z,99396.69
2022-10-06T09:42:10.350Z,99398.16
2022-10-06T09:46:28.312Z,99399.69
2022-10-06T09:50:30.304Z,99406.66
2022-10-06T09:54:34.497Z,99410.22
2022-10-06T09:58:39.134Z,99415.50
2022-10-06T10:02:41.339Z,99411.44
2022-10-06T10:06:43.510Z,99403.81
2022-10-06T10:10:45.554Z,99410.63
2022-10-06T10:14:48.148Z,99408.94
2022-10-06T10:18:51.303Z,99410.63
2022-10-06T10:22:54.976Z,99408.22
2022-10-06T10:27:09.028Z,99403.47
2022-10-06T10:31:16.022Z,99403.59
2022-10-06T10:35:30.508Z,99403.19
2022-10-06T10:39:54.689Z,99404.06
2022-10-06T10:44:08.736Z,99404.25
2022-10-06T10:48:21.021Z,99412.34
2022-10-06T10:52:28.993Z,99406.00
2022-10-06T10:56:33.576Z,99412.91
2022-10-06T11:00:41.155Z,99403.47
2022-10-06T11:04:47.157Z,99409.75
2022-10-06T11:09:11.049Z,99410.00
2022-10-06T11:13:23.068Z,99405.94
2022-10-06T11:17:44.177Z,99410.72
2022-10-06T11:21:52.971Z,99411.44
2022-10-06T11:26:13.696Z,99413.06
2022-10-06T11:30:19.635Z,99420.09
2022-10-06T11:34:21.696Z,99419.19
2022-10-06T11:38:37.850Z,99409.22
2022-10-06T11:42:55.818Z,99397.53
2022-10-06T11:47:06.195Z,99404.31
2022-10-06T11:51:17.424Z,99400.63
2022-10-06T11:55:23.782Z,99395.88
2022-10-06T11:59:28.455Z,99393.81
2022-10-06T12:03:33.382Z,99392.78
2022-10-06T12:07:54.213Z,99381.44
2022-10-06T12:11:59.357Z,99383.97
2022-10-06T12:21:09.845Z,99374.41
2022-10-06T12:25:52.122Z,99380.25
2022-10-06T12:30:22.669Z,99367.59
2022-10-06T12:34:57.258Z,99369.22
2022-10-06T12:39:05.941Z,99367.22
2022-10-06T12:43:20.907Z,99362.84
2022-10-06T12:47:32.426Z,99358.03
2022-10-06T12:51:45.863Z,99360.25
2022-10-06T12:55:52.650Z,99359.16
2022-10-06T12:59:54.680Z,99353.53
2022-10-06T13:03:56.718Z,99360.56
2022-10-06T13:08:35.143Z,99357.84
2022-10-06T13:12:38.183Z,99349.09
2022-10-06T13:16:45.828Z,99352.38
2022-10-06T13:20:53.517Z,99356.53
2022-10-06T13:25:01.556Z,99353.88
2022-10-06T13:29:03.713Z,99349.72
2022-10-06T13:33:07.335Z,99345.13
2022-10-06T13:41:26.776Z,99339.69
2022-10-06T13:45:29.011Z,99343.09
2022-10-06T13:49:58.735Z,99334.91
2022-10-06T13:54:23.803Z,99338.41
2022-10-06T13:58:29.881Z,99340.81
2022-10-06T14:02:36.393Z,99340.00
2022-10-06T14:06:44.638Z,99330.47
2022-10-06T14:10:50.688Z,99326.41
2022-10-06T14:14:53.132Z,99323.84
2022-10-06T14:19:00.556Z,99326.31
2022-10-06T14:23:02.583Z,99329.94
2022-10-06T14:27:06.685Z,99326.31
2022-10-06T14:31:14.141Z,99331.38
2022-10-06T14:35:16.566Z,99322.66
2022-10-06T14:39:19.187Z,99324.53
2022-10-06T14:43:21.313Z,99326.66
2022-10-06T14:47:23.324Z,99327.00
2022-10-06T14:51:27.069Z,99315.00
2022-10-06T14:55:30.738Z,99310.84
2022-10-06T14:59:33.016Z,99313.84
2022-10-06T15:03:36.344Z,99309.75
2022-10-06T15:07:57.072Z,99317.53
2022-10-06T15:11:59.967Z,99311.63
2022-10-06T15:16:02.082Z,99307.31
2022-10-06T15:20:04.463Z,99308.25
2022-10-06T15:24:08.050Z,99305.06
2022-10-06T15:28:31.705Z,99297.63
2022-10-06T15:32:33.738Z,99298.69
2022-10-06T15:36:37.529Z,99298.06
2022-10-06T15:40:39.522Z,99305.38
2022-10-06T15:44:41.509Z,99303.22
2022-10-06T15:48:44.329Z,99301.06
2022-10-06T15:52:46.541Z,99288.31
2022-10-06T15:56:53.207Z,99301.00
2022-10-06T16:00:55.226Z,99292.50
2022-10-06T16:05:17.518Z,99293.75
2022-10-06T16:09:19.746Z,99294.31
2022-10-06T16:13:21.714Z,99294.84
2022-10-06T16:17:23.678Z,99299.75
2022-10-06T16:21:25.701Z,99291.78
2022-10-06T16:25:27.739Z,99294.13
2022-10-06T16:29:29.887Z,99297.19
2022-10-06T16:33:31.929Z,99295.03
2022-10-06T16:37:34.061Z,99299.16
2022-10-06T16:41:36.090Z,99302.81
2022-10-06T16:45:38.095Z,99305.25
2022-10-06T16:49:40.187Z,99303.22
2022-10-06T16:53:50.583Z,99316.25
2022-10-06T16:57:52.589Z,99320.38
2022-10-06T17:01:54.567Z,99311.47
2022-10-06T17:06:01.888Z,99319.25
2022-10-06T17:10:20.900Z,99320.00
2022-10-06T17:14:23.430Z,99321.63
2022-10-06T17:18:25.560Z,99322.69
2022-10-06T17:22:27.652Z,99328.72
2022-10-06T17:26:32.569Z,99326.97
2022-10-06T17:30:34.621Z,99325.69
2022-10-06T17:34:36.642Z,99327.09
2022-10-06T17:38:41.924Z,99329.25
2022-10-06T17:42:43.971Z,99326.09
2022-10-06T17:46:46.128Z,99335.19
2022-10-06T17:50:57.400Z,99334.69
2022-10-06T17:54:59.410Z,99335.75
2022-10-06T17:59:07.571Z,99336.25
2022-10-06T18:03:09.596Z,99340.06
2022-10-06T18:07:11.614Z,99339.84
2022-10-06T18:11:35.429Z,99355.88
2022-10-06T18:15:37.642Z,99353.56
2022-10-06T18:19:39.663Z,99353.69
2022-10-06T18:23:43.490Z,99349.53
2022-10-06T18:27:47.562Z,99351.91
2022-10-06T18:31:51.846Z,99341.03
2022-10-06T18:36:14.618Z,99339.78
2022-10-06T18:40:17.309Z,99349.50
2022-10-06T18:44:39.336Z,99343.94
2022-10-06T18:49:00.018Z,99339.75
2022-10-06T18:53:04.121Z,99343.47
2022-10-06T18:57:06.144Z,99339.97
2022-10-06T19:01:08.325Z,99338.41
2022-10-06T19:05:10.419Z,99340.22
2022-10-06T19:09:17.333Z,99342.19
2022-10-06T19:13:20.276Z,99346.97
2022-10-06T19:17:24.241Z,99343.53
2022-10-06T19:21:27.448Z,99347.13
2022-10-06T19:25:30.029Z,99355.06
2022-10-06T19:29:36.949Z,99357.22
2022-10-06T19:33:39.705Z,99353.28
2022-10-06T19:37:42.106Z,99349.34
2022-10-06T19:42:03.068Z,99358.00
2022-10-06T19:46:05.188Z,99365.84
2022-10-06T19:50:12.096Z,99364.19
2022-10-06T19:54:17.520Z,99365.25
2022-10-06T19:58:19.524Z,99347.16
2022-10-06T20:02:21.573Z,99356.22
2022-10-06T20:06:23.961Z,99357.13
2022-10-06T20:10:26.089Z,99362.31
2022-10-06T20:14:29.004Z,99353.50
2022-10-06T20:18:36.224Z,99351.81
2022-10-06T20:22:38.248Z,99355.50
2022-10-06T20:26:43.128Z,99362.47
2022-10-06T20:30:50.014Z,99349.41
2022-10-06T20:34:52.657Z,99359.06
2022-10-06T20:39:13.863Z,99353.19
2022-10-06T20:43:15.921Z,99355.84
2022-10-06T20:47:18.006Z,99355.72
2022-10-06T20:51:23.134Z,99351.34
2022-10-06T20:55:28.980Z,99346.09
2022-10-06T20:59:31.837Z,99341.97
2022-10-06T21:03:35.124Z,99343.13
2022-10-06T21:07:37.309Z,99344.19
2022-10-06T21:11:39.824Z,99348.53
2022-10-06T21:15:45.692Z,99334.59
2022-10-06T21:19:47.966Z,99342.38
2022-10-06T21:23:50.313Z,99333.63
2022-10-06T21:27:52.497Z,99339.88
2022-10-06T21:31:55.520Z,99327.88
2022-10-06T21:35:59.890Z,99333.16
2022-10-06T21:40:02.685Z,99328.88
2022-10-06T21:44:09.441Z,99319.34
2022-10-06T21:48:11.666Z,99314.19
2022-10-06T21:52:13.860Z,99315.91
2022-10-06T21:56:16.329Z,99316.75
2022-10-06T22:00:18.621Z,99311.47
2022-10-06T22:04:20.806Z,99301.91
2022-10-06T22:08:23.044Z,99308.00
2022-10-06T22:12:25.234Z,99298.44
2022-10-06T22:16:30.860Z,99301.09
2022-10-06T22:20:34.451Z,99296.78
2022-10-06T22:24:36.629Z,99296.91
2022-10-06T22:28:40.211Z,99299.69
2022-10-06T22:32:42.562Z,99294.63
2022-10-06T22:36:45.034Z,99292.03
2022-10-06T22:40:47.196Z,99284.19
2022-10-06T22:44:49.369Z,99282.41
2022-10-06T22:48:51.590Z,99284.19
2022-10-06T22:52:53.792Z,99278.94
2022-10-06T22:56:56.992Z,99282.38
2022-10-06T23:01:08.571Z,99271.16
2022-10-06T23:05:10.830Z,99271.31
2022-10-06T23:09:13.085Z,99261.78
2022-10-06T23:13:15.296Z,99260.09
2022-10-06T23:17:17.491Z,99253.97
2022-10-06T23:21:22.537Z,99251.44
2022-10-06T23:25:27.248Z,99253.13
2022-10-06T23:29:30.800Z,99243.50
2022-10-06T23:33:33.945Z,99247.03
2022-10-06T23:37:37.833Z,99244.47
2022-10-06T23:41:41.656Z,99235.72
2022-10-06T23:45:43.986Z,99235.66
2022-10-06T23:49:46.249Z,99231.38
2022-10-06T23:53:48.533Z,99233.13
2022-10-06T23:57:50.709Z,99229.66
